createdAt,value
2018-11-26T00:00:46.056Z,17.30
2018-11-26T00:03:19.876Z,21.77
2018-11-26T00:05:51.725Z,19.63
2018-11-26T00:08:33.040Z,24.23
2018-11-26T00:11:06.056Z,29.57
2018-11-26T00:13:44.182Z,20.63
2018-11-26T00:18:52.692Z,18.33
2018-11-26T00:21:22.359Z,28.27
2018-11-26T00:24:00.809Z,26.23
2018-11-26T00:26:36.482Z,24.27
2018-11-26T00:29:13.607Z,19.93
2018-11-26T00:31:48.406Z,17.33
2018-11-26T00:34:19.257Z,16.43
2018-11-26T00:39:28.005Z,16.87
2018-11-26T00:41:58.023Z,24.63
2018-11-26T00:44:38.955Z,15.90
2018-11-26T00:49:48.350Z,21.43
2018-11-26T00:57:38.973Z,18.13
2018-11-26T01:00:14.703Z,22.53
2018-11-26T01:02:45.849Z,16.33
2018-11-26T01:08:35.548Z,14.70
2018-11-26T01:11:05.097Z,17.83
2018-11-26T01:16:30.319Z,13.47
2018-11-26T01:21:37.646Z,12.67
2018-11-26T01:24:09.180Z,16.63
2018-11-26T01:26:39.818Z,15.30
2018-11-26T01:29:13.558Z,15.07
2018-11-26T01:31:41.656Z,15.87
2018-11-26T01:34:15.062Z,13.43
2018-11-26T01:36:53.047Z,13.03
2018-11-26T01:41:57.255Z,13.30
2018-11-26T01:44:31.005Z,12.10
2018-11-26T01:47:02.521Z,15.00
2018-11-26T01:49:35.667Z,14.73
2018-11-26T01:52:07.125Z,11.47
2018-11-26T01:57:12.209Z,14.07
2018-11-26T01:59:45.379Z,13.37
2018-11-26T02:02:16.552Z,15.17
2018-11-26T02:04:47.790Z,16.13
2018-11-26T02:07:28.860Z,13.67
2018-11-26T02:10:00.696Z,23.53
2018-11-26T02:12:42.480Z,14.70
2018-11-26T02:15:14.684Z,13.57
2018-11-26T02:17:50.487Z,14.73
2018-11-26T02:20:22.379Z,12.40
2018-11-26T02:23:03.232Z,12.10
2018-11-26T02:30:59.476Z,15.33
2018-11-26T02:33:30.592Z,12.53
2018-11-26T02:36:03.947Z,13.10
2018-11-26T02:38:36.903Z,16.40
2018-11-26T02:41:10.194Z,16.97
2018-11-26T02:43:51.679Z,17.30
2018-11-26T02:49:09.898Z,13.47
2018-11-26T02:51:44.380Z,11.53
2018-11-26T02:54:15.206Z,13.33
2018-11-26T02:56:46.624Z,10.97
2018-11-26T02:59:21.879Z,9.67
2018-11-26T03:01:51.089Z,10.20
2018-11-26T03:04:26.315Z,11.53
2018-11-26T03:06:55.725Z,10.63
2018-11-26T03:09:31.554Z,10.90
2018-11-26T03:14:42.832Z,8.43
2018-11-26T03:17:18.997Z,11.13
2018-11-26T03:19:57.961Z,9.97
2018-11-26T03:22:31.579Z,10.90
2018-11-26T03:25:08.817Z,11.13
2018-11-26T03:30:17.603Z,11.37
2018-11-26T03:32:56.259Z,11.03
2018-11-26T03:35:30.999Z,13.17
2018-11-26T03:38:01.933Z,11.60
2018-11-26T03:40:40.099Z,13.73
2018-11-26T03:45:59.197Z,11.57
2018-11-26T03:48:33.830Z,10.43
2018-11-26T03:51:05.144Z,12.30
2018-11-26T03:53:38.235Z,12.13
2018-11-26T03:56:16.408Z,11.33
2018-11-26T04:01:33.521Z,11.73
2018-11-26T04:04:15.665Z,12.40
2018-11-26T04:06:54.115Z,10.53
2018-11-26T04:09:23.154Z,12.10
2018-11-26T04:11:54.405Z,12.40
2018-11-26T04:14:32.283Z,11.17
2018-11-26T04:17:06.693Z,11.57
2018-11-26T04:19:42.418Z,10.77
2018-11-26T04:22:20.106Z,10.93
2018-11-26T04:24:51.037Z,12.17
2018-11-26T04:27:27.432Z,11.10
2018-11-26T04:29:56.796Z,10.43
2018-11-26T04:32:30.113Z,11.00
2018-11-26T04:35:05.044Z,11.50
2018-11-26T04:37:36.008Z,11.90
2018-11-26T04:40:10.754Z,12.70
2018-11-26T04:42:39.070Z,13.00
2018-11-26T04:45:17.752Z,12.73
2018-11-26T04:47:55.921Z,12.73
2018-11-26T04:50:28.487Z,12.77
2018-11-26T04:52:59.244Z,13.20
2018-11-26T04:55:36.716Z,12.83
2018-11-26T04:58:08.697Z,11.87
2018-11-26T05:00:48.063Z,12.27
2018-11-26T05:08:39.881Z,11.57
2018-11-26T05:11:12.983Z,12.27
2018-11-26T05:13:47.000Z,12.40
2018-11-26T05:16:21.711Z,13.03
2018-11-26T05:18:54.769Z,12.20
2018-11-26T05:24:06.089Z,12.23
2018-11-26T05:26:41.000Z,11.23
2018-11-26T05:29:12.444Z,13.20
2018-11-26T05:31:44.257Z,12.60
2018-11-26T05:34:21.022Z,11.93
2018-11-26T05:39:38.337Z,11.33
2018-11-26T05:44:53.146Z,12.30
2018-11-26T05:47:24.641Z,12.27
2018-11-26T05:49:59.962Z,13.67
2018-11-26T05:52:29.272Z,14.90
2018-11-26T05:55:03.132Z,12.93
2018-11-26T05:57:34.209Z,14.40
2018-11-26T06:00:13.427Z,14.50
2018-11-26T06:02:46.268Z,14.23
2018-11-26T06:05:18.036Z,15.67
2018-11-26T06:07:53.359Z,15.40
2018-11-26T06:10:25.072Z,13.50
2018-11-26T06:13:00.701Z,12.97
2018-11-26T06:18:14.029Z,10.70
2018-11-26T06:20:49.028Z,10.47
2018-11-26T06:23:19.970Z,10.77
2018-11-26T06:25:55.734Z,10.53
2018-11-26T06:28:27.145Z,13.33
2018-11-26T06:31:02.364Z,11.90
2018-11-26T06:33:32.261Z,11.93
2018-11-26T06:36:02.243Z,14.10
2018-11-26T06:38:35.162Z,12.33
2018-11-26T06:43:50.260Z,12.10
2018-11-26T06:46:27.221Z,13.60
2018-11-26T06:49:02.724Z,11.20
2018-11-26T06:51:34.577Z,13.17
2018-11-26T06:54:10.145Z,15.43
2018-11-26T06:56:38.792Z,14.20
2018-11-26T06:59:12.544Z,11.93
2018-11-26T07:01:41.335Z,12.37
2018-11-26T07:04:14.626Z,12.70
2018-11-26T07:06:47.432Z,11.97
2018-11-26T07:09:24.952Z,12.33
2018-11-26T07:11:58.588Z,14.37
2018-11-26T07:14:41.364Z,13.47
2018-11-26T07:17:15.172Z,13.43
2018-11-26T07:19:46.718Z,15.07
2018-11-26T07:25:09.123Z,13.60
2018-11-26T07:27:42.175Z,12.13
2018-11-26T07:30:12.900Z,13.80
2018-11-26T07:32:46.289Z,13.47
2018-11-26T07:35:18.632Z,14.67
2018-11-26T07:37:52.243Z,15.23
2018-11-26T07:40:27.415Z,15.60
2018-11-26T07:43:01.184Z,16.37
2018-11-26T07:45:38.667Z,17.97
2018-11-26T07:48:13.415Z,17.63
2018-11-26T07:50:52.057Z,18.73
2018-11-26T07:53:25.052Z,18.13
2018-11-26T07:56:00.243Z,16.67
2018-11-26T07:58:39.663Z,16.97
2018-11-26T08:01:10.605Z,17.57
2018-11-26T08:03:47.015Z,17.40
2018-11-26T08:11:32.550Z,17.30
2018-11-26T08:16:54.156Z,19.60
2018-11-26T08:19:28.232Z,20.70
2018-11-26T08:22:01.177Z,18.67
2018-11-26T08:24:36.815Z,20.87
2018-11-26T08:27:11.207Z,18.23
2018-11-26T08:29:45.472Z,19.90
2018-11-26T08:32:18.980Z,17.30
2018-11-26T08:34:51.804Z,17.70
2018-11-26T08:37:46.662Z,17.77
2018-11-26T08:43:13.680Z,18.70
2018-11-26T08:45:49.147Z,19.30
2018-11-26T08:48:24.148Z,18.43
2018-11-26T08:50:55.737Z,17.60
2018-11-26T08:53:31.298Z,16.73
2018-11-26T08:58:38.716Z,17.10
2018-11-26T09:01:31.941Z,13.80
2018-11-26T09:04:06.333Z,16.20
2018-11-26T09:06:41.871Z,16.40
2018-11-26T09:09:16.432Z,15.03
2018-11-26T09:11:53.541Z,17.23
2018-11-26T09:14:26.963Z,17.33
2018-11-26T09:17:03.480Z,18.30
2018-11-26T09:19:38.971Z,20.50
2018-11-26T09:22:12.317Z,17.40
2018-11-26T09:24:50.556Z,18.13
2018-11-26T09:29:55.271Z,17.93
2018-11-26T09:32:32.396Z,16.37
2018-11-26T09:35:03.502Z,15.47
2018-11-26T09:37:36.943Z,16.87
2018-11-26T09:40:10.276Z,14.53
2018-11-26T09:45:20.409Z,16.00
2018-11-26T09:47:53.404Z,18.13
2018-11-26T09:50:26.901Z,15.83
2018-11-26T09:55:41.463Z,14.20
2018-11-26T10:00:56.347Z,14.13
2018-11-26T10:03:25.616Z,13.70
2018-11-26T10:05:58.600Z,13.33
2018-11-26T10:13:54.837Z,14.53
2018-11-26T10:16:32.388Z,13.23
2018-11-26T10:19:07.572Z,13.27
2018-11-26T10:21:41.432Z,13.93
2018-11-26T10:24:24.776Z,14.63
2018-11-26T10:29:53.369Z,13.83
2018-11-26T10:35:17.446Z,14.73
2018-11-26T10:37:51.543Z,14.60
2018-11-26T10:40:28.224Z,14.10
2018-11-26T10:43:01.667Z,14.90
2018-11-26T10:45:38.072Z,15.23
2018-11-26T10:48:11.704Z,17.60
2018-11-26T10:50:49.283Z,15.00
2018-11-26T10:56:02.504Z,16.43
2018-11-26T10:58:40.863Z,13.50
2018-11-26T11:01:37.851Z,13.03
2018-11-26T11:06:46.195Z,15.43
2018-11-26T11:09:21.247Z,14.57
2018-11-26T11:11:55.941Z,14.47
2018-11-26T11:14:29.080Z,14.43
2018-11-26T11:17:02.290Z,14.10
2018-11-26T11:22:25.980Z,12.80
2018-11-26T11:24:56.719Z,13.43
2018-11-26T11:27:34.155Z,17.00
2018-11-26T11:30:07.803Z,13.80
2018-11-26T11:32:43.438Z,12.97
2018-11-26T11:35:14.637Z,14.30
2018-11-26T11:38:04.882Z,13.60
2018-11-26T11:40:46.526Z,13.63
2018-11-26T11:45:55.082Z,14.20
2018-11-26T11:51:13.610Z,14.57
2018-11-26T11:53:49.476Z,12.60
2018-11-26T11:56:23.034Z,14.03
2018-11-26T11:58:54.886Z,14.03
2018-11-26T12:01:28.314Z,13.07
2018-11-26T12:03:56.910Z,15.70
2018-11-26T12:06:29.589Z,13.83
2018-11-26T12:11:35.605Z,13.40
2018-11-26T12:14:06.570Z,14.23
2018-11-26T12:16:42.270Z,12.27
2018-11-26T12:19:14.071Z,14.57
2018-11-26T12:21:46.974Z,14.23
2018-11-26T12:24:22.517Z,26.43
2018-11-26T12:26:57.278Z,22.67
2018-11-26T12:29:31.986Z,14.57
2018-11-26T12:32:03.221Z,15.23
2018-11-26T12:34:45.801Z,13.80
2018-11-26T12:37:24.581Z,14.37
2018-11-26T12:39:53.581Z,14.33
2018-11-26T12:42:29.246Z,15.57
2018-11-26T12:45:04.695Z,19.37
2018-11-26T12:47:40.709Z,14.37
2018-11-26T12:55:18.794Z,13.83
2018-11-26T12:57:51.670Z,32.73
2018-11-26T13:00:42.364Z,16.33
2018-11-26T13:03:15.425Z,14.77
2018-11-26T13:06:07.661Z,13.00
2018-11-26T13:14:28.346Z,13.70
2018-11-26T13:16:59.463Z,14.33
2018-11-26T13:19:34.134Z,15.10
2018-11-26T13:22:24.816Z,13.63
2018-11-26T13:24:56.970Z,13.63
2018-11-26T13:27:26.918Z,13.13
2018-11-26T13:30:00.156Z,15.27
2018-11-26T13:35:08.170Z,15.10
2018-11-26T13:37:58.661Z,14.00
2018-11-26T13:40:33.426Z,14.23
2018-11-26T13:43:04.794Z,12.53
2018-11-26T13:45:42.212Z,13.93
2018-11-26T13:48:11.324Z,12.97
2018-11-26T13:50:54.440Z,13.50
2018-11-26T13:53:29.541Z,12.23
2018-11-26T13:56:02.973Z,12.67
2018-11-26T13:58:36.133Z,22.90
2018-11-26T14:01:09.543Z,13.33
2018-11-26T14:03:41.489Z,15.50
2018-11-26T14:06:32.313Z,16.80
2018-11-26T14:09:14.971Z,21.47
2018-11-26T14:11:52.396Z,24.63
2018-11-26T14:14:21.378Z,19.67
2018-11-26T14:19:42.426Z,19.43
2018-11-26T14:22:14.228Z,14.10
2018-11-26T14:27:36.381Z,17.20
2018-11-26T14:30:10.589Z,16.90
2018-11-26T14:32:40.908Z,15.60
2018-11-26T14:35:09.977Z,34.10
2018-11-26T14:37:46.008Z,16.47
2018-11-26T14:40:14.764Z,15.07
2018-11-26T14:43:05.269Z,18.80
2018-11-26T14:45:44.075Z,15.33
2018-11-26T14:48:14.109Z,15.37
2018-11-26T14:50:48.828Z,41.93
2018-11-26T14:53:18.906Z,28.87
2018-11-26T15:01:08.486Z,18.30
2018-11-26T15:03:41.848Z,15.90
2018-11-26T15:06:16.462Z,16.33
2018-11-26T15:08:49.389Z,17.17
2018-11-26T15:11:24.635Z,19.53
2018-11-26T15:16:38.630Z,15.97
2018-11-26T15:19:15.713Z,18.63
2018-11-26T15:21:46.933Z,17.00
2018-11-26T15:24:23.639Z,15.67
2018-11-26T15:26:54.906Z,18.70
2018-11-26T15:32:01.369Z,19.33
2018-11-26T15:34:36.243Z,16.30
2018-11-26T15:37:10.758Z,17.43
2018-11-26T15:39:41.529Z,15.80
2018-11-26T15:42:17.094Z,17.37
2018-11-26T15:44:47.221Z,17.87
2018-11-26T15:47:22.916Z,18.50
2018-11-26T15:50:13.597Z,19.63
2018-11-26T15:52:51.033Z,18.93
2018-11-26T15:55:25.125Z,19.60
2018-11-26T15:57:56.131Z,16.67
2018-11-26T16:00:28.188Z,21.27
2018-11-26T16:03:07.717Z,19.87
2018-11-26T16:05:36.447Z,17.63
2018-11-26T16:08:16.437Z,20.50
2018-11-26T16:11:07.167Z,17.53
2018-11-26T16:13:49.993Z,18.83
2018-11-26T16:16:27.980Z,17.47
2018-11-26T16:19:06.407Z,20.33
2018-11-26T16:21:39.829Z,19.93
2018-11-26T16:24:19.079Z,19.97
2018-11-26T16:29:22.208Z,20.77
2018-11-26T16:31:53.345Z,17.50
2018-11-26T16:34:28.806Z,21.33
2018-11-26T16:37:00.626Z,17.53
2018-11-26T16:39:34.296Z,17.80
2018-11-26T16:47:33.218Z,19.23
2018-11-26T16:50:06.828Z,18.23
2018-11-26T16:52:40.565Z,18.53
2018-11-26T16:55:11.995Z,18.77
2018-11-26T16:57:53.241Z,16.53
2018-11-26T17:02:59.350Z,20.87
2018-11-26T17:05:33.642Z,20.37
2018-11-26T17:08:10.203Z,20.30
2018-11-26T17:10:47.857Z,21.97
2018-11-26T17:13:26.047Z,20.30
2018-11-26T17:16:00.773Z,22.17
2018-11-26T17:18:31.501Z,24.17
2018-11-26T17:20:59.910Z,22.53
2018-11-26T17:23:33.477Z,21.20
2018-11-26T17:28:44.619Z,24.43
2018-11-26T17:31:13.065Z,20.27
2018-11-26T17:33:51.666Z,20.30
2018-11-26T17:36:25.285Z,20.50
2018-11-26T17:39:19.365Z,20.13
2018-11-26T17:41:54.049Z,19.50
2018-11-26T17:44:29.819Z,20.83
2018-11-26T17:47:03.908Z,21.47
2018-11-26T17:49:37.989Z,23.22
2018-11-26T17:54:51.405Z,30.40
2018-11-26T17:57:27.359Z,24.33
2018-11-26T17:59:58.818Z,25.97
2018-11-26T18:07:41.526Z,45.10
2018-11-26T18:10:12.833Z,31.17
2018-11-26T18:12:50.807Z,20.20
2018-11-26T18:17:57.453Z,25.43
2018-11-26T18:20:30.430Z,22.87
2018-11-26T18:23:07.827Z,22.03
2018-11-26T18:25:39.029Z,20.50
2018-11-26T18:28:15.905Z,21.13
2018-11-26T18:30:47.045Z,20.53
2018-11-26T18:33:28.570Z,21.60
2018-11-26T18:38:38.966Z,18.00
2018-11-26T18:41:17.625Z,18.13
2018-11-26T18:43:52.775Z,19.30
2018-11-26T18:46:23.437Z,22.07
2018-11-26T18:51:49.522Z,17.60
2018-11-26T18:54:27.738Z,17.33
2018-11-26T18:57:00.644Z,19.40
2018-11-26T18:59:30.127Z,17.77
2018-11-26T19:02:03.932Z,18.47
2018-11-26T19:04:35.347Z,17.63
2018-11-26T19:07:05.988Z,17.17
2018-11-26T19:09:38.545Z,17.47
2018-11-26T19:14:56.326Z,18.43
2018-11-26T19:20:06.462Z,16.83
2018-11-26T19:22:38.261Z,19.03
2018-11-26T19:25:16.775Z,16.57
2018-11-26T19:30:28.353Z,17.37
2018-11-26T19:32:59.582Z,17.40
2018-11-26T19:35:36.469Z,16.37
2018-11-26T19:40:48.218Z,15.30
2018-11-26T19:43:24.042Z,13.77
2018-11-26T19:45:57.658Z,16.27
2018-11-26T19:48:34.841Z,16.03
2018-11-26T19:51:08.608Z,15.13
2018-11-26T19:53:46.225Z,15.57
2018-11-26T19:56:17.084Z,13.63
2018-11-26T19:58:49.433Z,14.37
2018-11-26T20:01:27.906Z,14.40
2018-11-26T20:04:05.855Z,13.20
2018-11-26T20:06:39.268Z,15.00
2018-11-26T20:11:49.868Z,13.90
2018-11-26T20:14:25.973Z,15.83
2018-11-26T20:17:02.913Z,13.87
2018-11-26T20:27:58.691Z,17.03
2018-11-26T20:30:31.901Z,14.47
2018-11-26T20:33:22.059Z,19.47
2018-11-26T20:35:57.351Z,17.77
2018-11-26T20:38:30.995Z,16.87
2018-11-26T20:43:41.341Z,18.23
2018-11-26T20:46:19.618Z,27.20
2018-11-26T20:48:55.766Z,26.10
2018-11-26T20:51:27.549Z,26.10
2018-11-26T20:54:01.473Z,16.47
2018-11-26T20:56:34.210Z,16.60
2018-11-26T20:59:07.420Z,19.60
2018-11-26T21:01:50.322Z,17.07
2018-11-26T21:04:27.973Z,14.97
2018-11-26T21:07:01.169Z,19.40
2018-11-26T21:12:19.917Z,22.63
2018-11-26T21:14:50.069Z,21.00
2018-11-26T21:17:25.745Z,17.77
2018-11-26T21:19:54.294Z,17.27
2018-11-26T21:22:29.505Z,16.50
2018-11-26T21:27:39.566Z,14.80
2018-11-26T21:33:01.435Z,15.83
2018-11-26T21:35:32.182Z,21.10
2018-11-26T21:38:15.050Z,25.00
2018-11-26T21:40:57.324Z,18.73
2018-11-26T21:43:34.821Z,17.03
2018-11-26T21:46:07.976Z,20.87
2018-11-26T21:48:46.193Z,16.70
2018-11-26T21:53:55.155Z,16.03
2018-11-26T21:56:28.396Z,16.00
2018-11-26T21:59:02.008Z,16.30
2018-11-26T22:01:33.339Z,18.90
2018-11-26T22:04:07.145Z,17.70
2018-11-26T22:06:39.001Z,13.70
2018-11-26T22:12:08.085Z,16.43
2018-11-26T22:17:16.014Z,17.10
2018-11-26T22:19:50.943Z,16.03
2018-11-26T22:22:25.192Z,17.13
2018-11-26T22:25:01.491Z,19.47
2018-11-26T22:27:40.361Z,17.50
2018-11-26T22:30:13.281Z,15.53
2018-11-26T22:32:45.570Z,17.10
2018-11-26T22:35:18.453Z,16.97
2018-11-26T22:37:51.409Z,17.00
2018-11-26T22:40:21.455Z,16.43
2018-11-26T22:42:58.248Z,14.53
2018-11-26T22:45:26.796Z,15.43
2018-11-26T22:47:58.129Z,14.00
2018-11-26T22:50:34.675Z,16.23
2018-11-26T22:53:09.213Z,14.67
2018-11-26T22:55:42.854Z,14.17
2018-11-26T22:58:12.068Z,14.53
2018-11-26T23:00:52.241Z,15.47
2018-11-26T23:06:05.096Z,13.03
2018-11-26T23:08:40.347Z,15.40
2018-11-26T23:11:17.355Z,13.97
2018-11-26T23:13:56.047Z,15.03
2018-11-26T23:16:30.614Z,16.13
2018-11-26T23:21:44.297Z,16.37
2018-11-26T23:24:22.192Z,14.70
2018-11-26T23:29:43.469Z,13.17
2018-11-26T23:32:17.124Z,12.30
2018-11-26T23:34:52.619Z,14.17
2018-11-26T23:37:26.674Z,13.07
2018-11-26T23:40:16.688Z,13.13
2018-11-26T23:42:53.785Z,15.63
2018-11-26T23:53:11.536Z,14.00
2018-11-26T23:55:46.949Z,15.40
2018-11-26T23:58:21.346Z,15.40
